Dunfermline, United Kingdom

12:37 PM GMT on February 06, 2016 (GMT +0000)
Urquhart Crossford | | Change Station
CLOSE
Current Station
Personal Weather Station
Location: Dunfermline, FIFE
Elevation: 200 ft
Nearby Weather Stations

Elev 200 ft 56.07 °N, 3.48 °W | Updated 11 seconds ago

Scattered Clouds
Scattered Clouds
41.9 °F
Feels Like 34 °F
N
16.0
Wind Variable Wind from East
Gusts 21.0 mph

Today
High -- | Low -- °F
--% Chance of Precip.
Yesterday
High -- | Low -- °F
Precip. -- in
Pressure 29.12 in
Visibility 6.2 miles
Clouds Scattered Clouds 2200 ft
Windchill 34 °F
Dew Point 36 °F
Humidity 81%
Rainfall 0.00 in
Snow Depth Not available.
8:00 AM 4:56 PM
Waning Crescent, 6% visible
METAR EGPH 061220Z AUTO 12008KT 090V180 9999 SCT022 06/02 Q0986
Pressure 29.12 in
Visibility 6.2 miles
Clouds Scattered Clouds 2200 ft
Windchill 34 °F
Dew Point 36 °F
Humidity 81%
Rainfall 0.00 in
Snow Depth Not available.
8:00 AM 4:56 PM
Waning Crescent, 6% visible
METAR EGPH 061220Z AUTO 12008KT 090V180 9999 SCT022 06/02 Q0986

10-Day Weather Forecast

Almanac

Astronomy

Feb. 06, 2016 Rise Set
Actual Time
Civil Twilight
Nautical Twilight
Astronomical Twilight
Moon
Length of Visible Light
Length of Day
Tomorrow will be .
, % of the Moon is Illuminated

Today's Extremes

Country Highs Country Lows

Community

WunderPhotos

Upload Photos

1,890,950 photos uploaded!

WunderBlog® & News

Nearby

Air Quality

  Air Quality AQ Index Pollutant
Not available.

Snow Depth

Station Depth Elevation

Earthquake Activity

City Distance Mag. Time & Date
Minimum magnitude displayed is 2.5.

Coastal Water Temperatures

Place Temperature

Stations

Nearby Weather Stations

Station Location Temp. Windchill Dew Point Humidity Wind Precip. Elev Updated Type